sensor_id;sensor_type;location;lat;lon;timestamp;P1;durP1;ratioP1;P2;durP2;ratioP2
71965;SDS011;59836;52.132;5.442;2022-10-26T00:01:18;6.10;;;4.50;;
71965;SDS011;59836;52.132;5.442;2022-10-26T00:03:45;7.00;;;4.65;;
71965;SDS011;59836;52.132;5.442;2022-10-26T00:08:59;7.23;;;5.13;;
71965;SDS011;59836;52.132;5.442;2022-10-26T00:11:25;8.77;;;5.03;;
71965;SDS011;59836;52.132;5.442;2022-10-26T00:13:51;5.32;;;4.40;;
71965;SDS011;59836;52.132;5.442;2022-10-26T00:16:23;5.80;;;3.90;;
71965;SDS011;59836;52.132;5.442;2022-10-26T00:18:52;5.18;;;4.18;;
71965;SDS011;59836;52.132;5.442;2022-10-26T00:21:18;10.17;;;4.37;;
71965;SDS011;59836;52.132;5.442;2022-10-26T00:23:44;7.93;;;5.47;;
71965;SDS011;59836;52.132;5.442;2022-10-26T00:28:51;8.68;;;4.55;;
71965;SDS011;59836;52.132;5.442;2022-10-26T00:31:25;7.43;;;4.90;;
71965;SDS011;59836;52.132;5.442;2022-10-26T00:33:56;10.87;;;4.80;;
71965;SDS011;59836;52.132;5.442;2022-10-26T00:36:23;6.60;;;4.35;;
71965;SDS011;59836;52.132;5.442;2022-10-26T00:41:31;7.68;;;3.75;;
71965;SDS011;59836;52.132;5.442;2022-10-26T00:44:44;9.70;;;4.35;;
71965;SDS011;59836;52.132;5.442;2022-10-26T00:47:05;7.10;;;4.37;;
71965;SDS011;59836;52.132;5.442;2022-10-26T00:49:33;7.75;;;4.47;;
71965;SDS011;59836;52.132;5.442;2022-10-26T00:52:00;6.53;;;4.50;;
71965;SDS011;59836;52.132;5.442;2022-10-26T00:54:26;6.82;;;4.25;;
71965;SDS011;59836;52.132;5.442;2022-10-26T00:56:53;5.70;;;4.30;;
71965;SDS011;59836;52.132;5.442;2022-10-26T00:59:20;6.97;;;4.67;;
71965;SDS011;59836;52.132;5.442;2022-10-26T01:01:48;8.15;;;4.70;;
71965;SDS011;59836;52.132;5.442;2022-10-26T01:04:18;8.82;;;4.70;;
71965;SDS011;59836;52.132;5.442;2022-10-26T01:06:45;6.25;;;4.10;;
71965;SDS011;59836;52.132;5.442;2022-10-26T01:11:47;6.63;;;4.83;;
71965;SDS011;59836;52.132;5.442;2022-10-26T01:14:14;5.47;;;4.45;;
71965;SDS011;59836;52.132;5.442;2022-10-26T01:31:42;6.40;;;3.50;;
71965;SDS011;59836;52.132;5.442;2022-10-26T01:34:32;7.32;;;4.10;;
71965;SDS011;59836;52.132;5.442;2022-10-26T01:37:06;7.85;;;3.83;;
71965;SDS011;59836;52.132;5.442;2022-10-26T01:42:47;5.50;;;3.67;;
71965;SDS011;59836;52.132;5.442;2022-10-26T01:45:23;8.07;;;3.83;;
71965;SDS011;59836;52.132;5.442;2022-10-26T01:47:55;8.77;;;4.05;;
71965;SDS011;59836;52.132;5.442;2022-10-26T01:50:27;6.38;;;4.00;;
71965;SDS011;59836;52.132;5.442;2022-10-26T01:52:55;4.90;;;3.87;;
71965;SDS011;59836;52.132;5.442;2022-10-26T02:07:00;5.53;;;4.00;;
71965;SDS011;59836;52.132;5.442;2022-10-26T02:09:35;8.25;;;3.95;;
71965;SDS011;59836;52.132;5.442;2022-10-26T02:15:07;7.47;;;4.30;;
71965;SDS011;59836;52.132;5.442;2022-10-26T02:17:50;7.28;;;3.67;;
71965;SDS011;59836;52.132;5.442;2022-10-26T02:20:24;7.83;;;4.67;;
71965;SDS011;59836;52.132;5.442;2022-10-26T02:23:02;8.88;;;3.80;;
71965;SDS011;59836;52.132;5.442;2022-10-26T02:25:32;5.57;;;3.92;;
71965;SDS011;59836;52.132;5.442;2022-10-26T02:28:17;10.60;;;4.68;;
71965;SDS011;59836;52.132;5.442;2022-10-26T02:30:47;7.43;;;4.43;;
71965;SDS011;59836;52.132;5.442;2022-10-26T02:33:18;9.47;;;4.10;;
71965;SDS011;59836;52.132;5.442;2022-10-26T02:38:40;8.43;;;4.30;;
71965;SDS011;59836;52.132;5.442;2022-10-26T02:41:22;8.00;;;4.22;;
71965;SDS011;59836;52.132;5.442;2022-10-26T02:43:52;7.57;;;4.65;;
71965;SDS011;59836;52.132;5.442;2022-10-26T02:46:39;5.87;;;4.80;;
71965;SDS011;59836;52.132;5.442;2022-10-26T03:00:19;7.33;;;4.60;;
71965;SDS011;59836;52.132;5.442;2022-10-26T03:02:50;7.97;;;4.13;;
71965;SDS011;59836;52.132;5.442;2022-10-26T03:05:31;9.05;;;4.32;;
71965;SDS011;59836;52.132;5.442;2022-10-26T03:13:18;6.70;;;4.30;;
71965;SDS011;59836;52.132;5.442;2022-10-26T03:15:44;6.68;;;4.50;;
71965;SDS011;59836;52.132;5.442;2022-10-26T03:18:11;7.25;;;4.30;;
71965;SDS011;59836;52.132;5.442;2022-10-26T03:20:38;8.23;;;4.80;;
71965;SDS011;59836;52.132;5.442;2022-10-26T03:23:15;5.40;;;3.63;;
71965;SDS011;59836;52.132;5.442;2022-10-26T03:28:12;6.63;;;3.63;;
71965;SDS011;59836;52.132;5.442;2022-10-26T03:33:30;8.05;;;4.22;;
71965;SDS011;59836;52.132;5.442;2022-10-26T03:35:59;10.32;;;5.75;;
71965;SDS011;59836;52.132;5.442;2022-10-26T03:38:25;7.93;;;4.33;;
71965;SDS011;59836;52.132;5.442;2022-10-26T03:40:53;6.30;;;4.05;;
71965;SDS011;59836;52.132;5.442;2022-10-26T03:43:19;8.05;;;4.55;;
71965;SDS011;59836;52.132;5.442;2022-10-26T03:45:48;11.02;;;4.25;;
71965;SDS011;59836;52.132;5.442;2022-10-26T03:48:14;6.15;;;4.18;;
71965;SDS011;59836;52.132;5.442;2022-10-26T03:50:41;9.23;;;4.07;;
71965;SDS011;59836;52.132;5.442;2022-10-26T03:53:14;8.20;;;4.20;;
71965;SDS011;59836;52.132;5.442;2022-10-26T03:55:42;9.75;;;4.20;;
71965;SDS011;59836;52.132;5.442;2022-10-26T04:00:46;7.28;;;4.55;;
71965;SDS011;59836;52.132;5.442;2022-10-26T04:03:12;7.20;;;4.50;;
71965;SDS011;59836;52.132;5.442;2022-10-26T04:05:39;6.57;;;3.83;;
71965;SDS011;59836;52.132;5.442;2022-10-26T04:08:10;6.00;;;3.90;;
71965;SDS011;59836;52.132;5.442;2022-10-26T04:10:53;7.20;;;4.47;;
71965;SDS011;59836;52.132;5.442;2022-10-26T04:13:20;8.32;;;3.95;;
71965;SDS011;59836;52.132;5.442;2022-10-26T04:15:46;7.17;;;4.30;;
71965;SDS011;59836;52.132;5.442;2022-10-26T04:18:16;5.03;;;3.83;;
71965;SDS011;59836;52.132;5.442;2022-10-26T04:20:42;5.82;;;3.90;;
71965;SDS011;59836;52.132;5.442;2022-10-26T04:23:14;8.25;;;3.70;;
71965;SDS011;59836;52.132;5.442;2022-10-26T04:25:42;6.25;;;3.58;;
71965;SDS011;59836;52.132;5.442;2022-10-26T04:28:23;6.50;;;3.73;;
71965;SDS011;59836;52.132;5.442;2022-10-26T04:30:50;5.35;;;3.97;;
71965;SDS011;59836;52.132;5.442;2022-10-26T04:33:16;6.85;;;3.75;;
71965;SDS011;59836;52.132;5.442;2022-10-26T04:35:43;8.07;;;4.25;;
71965;SDS011;59836;52.132;5.442;2022-10-26T04:38:27;6.13;;;4.22;;
71965;SDS011;59836;52.132;5.442;2022-10-26T04:46:03;7.28;;;3.58;;
71965;SDS011;59836;52.132;5.442;2022-10-26T04:50:59;7.97;;;4.32;;
71965;SDS011;59836;52.132;5.442;2022-10-26T04:53:39;6.13;;;4.33;;
71965;SDS011;59836;52.132;5.442;2022-10-26T04:56:05;8.73;;;4.05;;
71965;SDS011;59836;52.132;5.442;2022-10-26T04:58:32;7.10;;;3.53;;
71965;SDS011;59836;52.132;5.442;2022-10-26T05:01:12;4.68;;;4.25;;
71965;SDS011;59836;52.132;5.442;2022-10-26T05:03:39;5.53;;;3.65;;
71965;SDS011;59836;52.132;5.442;2022-10-26T05:06:05;9.03;;;4.73;;
71965;SDS011;59836;52.132;5.442;2022-10-26T05:08:45;5.05;;;3.72;;
71965;SDS011;59836;52.132;5.442;2022-10-26T05:11:12;7.63;;;3.90;;
71965;SDS011;59836;52.132;5.442;2022-10-26T05:13:57;5.80;;;4.05;;
71965;SDS011;59836;52.132;5.442;2022-10-26T05:16:23;6.32;;;3.88;;
71965;SDS011;59836;52.132;5.442;2022-10-26T05:18:51;5.90;;;4.47;;
71965;SDS011;59836;52.132;5.442;2022-10-26T05:21:18;8.60;;;4.03;;
71965;SDS011;59836;52.132;5.442;2022-10-26T05:23:50;8.02;;;3.67;;
71965;SDS011;59836;52.132;5.442;2022-10-26T05:26:19;6.53;;;3.65;;
71965;SDS011;59836;52.132;5.442;2022-10-26T05:28:46;6.47;;;3.63;;
71965;SDS011;59836;52.132;5.442;2022-10-26T05:37:19;5.88;;;3.05;;
71965;SDS011;59836;52.132;5.442;2022-10-26T05:39:49;5.90;;;3.15;;
71965;SDS011;59836;52.132;5.442;2022-10-26T05:42:15;5.72;;;3.78;;
71965;SDS011;59836;52.132;5.442;2022-10-26T05:44:42;6.40;;;3.60;;
71965;SDS011;59836;52.132;5.442;2022-10-26T05:47:08;8.20;;;3.95;;
71965;SDS011;59836;52.132;5.442;2022-10-26T05:49:34;6.38;;;4.00;;
71965;SDS011;59836;52.132;5.442;2022-10-26T05:52:17;7.25;;;4.00;;
71965;SDS011;59836;52.132;5.442;2022-10-26T05:54:45;7.18;;;4.30;;
71965;SDS011;59836;52.132;5.442;2022-10-26T05:57:11;7.57;;;3.80;;
71965;SDS011;59836;52.132;5.442;2022-10-26T05:59:38;7.07;;;3.85;;
71965;SDS011;59836;52.132;5.442;2022-10-26T06:02:18;7.38;;;3.10;;
71965;SDS011;59836;52.132;5.442;2022-10-26T06:05:04;5.70;;;3.78;;
71965;SDS011;59836;52.132;5.442;2022-10-26T06:10:22;6.70;;;3.57;;
71965;SDS011;59836;52.132;5.442;2022-10-26T06:12:49;7.72;;;4.18;;
71965;SDS011;59836;52.132;5.442;2022-10-26T06:15:20;6.47;;;4.22;;
71965;SDS011;59836;52.132;5.442;2022-10-26T06:21:14;7.03;;;3.92;;
71965;SDS011;59836;52.132;5.442;2022-10-26T06:30:27;5.20;;;3.55;;
71965;SDS011;59836;52.132;5.442;2022-10-26T06:32:37;8.43;;;4.18;;
71965;SDS011;59836;52.132;5.442;2022-10-26T06:38:06;6.37;;;4.33;;
71965;SDS011;59836;52.132;5.442;2022-10-26T06:40:37;5.95;;;4.13;;
71965;SDS011;59836;52.132;5.442;2022-10-26T06:43:12;7.22;;;4.20;;
71965;SDS011;59836;52.132;5.442;2022-10-26T06:45:48;8.85;;;4.63;;
71965;SDS011;59836;52.132;5.442;2022-10-26T06:48:42;6.78;;;4.50;;
71965;SDS011;59836;52.132;5.442;2022-10-26T06:51:19;9.73;;;4.33;;
71965;SDS011;59836;52.132;5.442;2022-10-26T06:56:33;8.30;;;4.10;;
71965;SDS011;59836;52.132;5.442;2022-10-26T06:59:05;11.27;;;4.03;;
71965;SDS011;59836;52.132;5.442;2022-10-26T07:01:39;6.03;;;4.00;;
71965;SDS011;59836;52.132;5.442;2022-10-26T07:04:11;7.77;;;4.60;;
71965;SDS011;59836;52.132;5.442;2022-10-26T07:06:43;7.38;;;3.75;;
71965;SDS011;59836;52.132;5.442;2022-10-26T07:09:10;7.53;;;4.30;;
71965;SDS011;59836;52.132;5.442;2022-10-26T07:11:37;9.07;;;4.20;;
71965;SDS011;59836;52.132;5.442;2022-10-26T07:14:15;7.97;;;4.22;;
71965;SDS011;59836;52.132;5.442;2022-10-26T07:16:41;5.07;;;4.00;;
71965;SDS011;59836;52.132;5.442;2022-10-26T07:19:08;6.88;;;4.07;;
71965;SDS011;59836;52.132;5.442;2022-10-26T07:24:44;6.95;;;3.70;;
71965;SDS011;59836;52.132;5.442;2022-10-26T07:27:10;7.28;;;4.57;;
71965;SDS011;59836;52.132;5.442;2022-10-26T07:29:37;7.83;;;3.90;;
71965;SDS011;59836;52.132;5.442;2022-10-26T07:32:05;5.32;;;3.83;;
71965;SDS011;59836;52.132;5.442;2022-10-26T07:34:32;6.85;;;3.70;;
71965;SDS011;59836;52.132;5.442;2022-10-26T07:36:59;6.43;;;3.50;;
71965;SDS011;59836;52.132;5.442;2022-10-26T07:39:25;8.25;;;3.88;;
71965;SDS011;59836;52.132;5.442;2022-10-26T07:41:52;6.07;;;3.80;;
71965;SDS011;59836;52.132;5.442;2022-10-26T07:44:19;8.32;;;4.13;;
71965;SDS011;59836;52.132;5.442;2022-10-26T07:46:45;7.88;;;4.15;;
71965;SDS011;59836;52.132;5.442;2022-10-26T07:49:12;9.88;;;3.47;;
71965;SDS011;59836;52.132;5.442;2022-10-26T07:51:44;7.32;;;4.07;;
71965;SDS011;59836;52.132;5.442;2022-10-26T07:54:10;5.40;;;3.77;;
71965;SDS011;59836;52.132;5.442;2022-10-26T07:56:37;5.50;;;3.67;;
71965;SDS011;59836;52.132;5.442;2022-10-26T07:59:03;7.13;;;3.42;;
71965;SDS011;59836;52.132;5.442;2022-10-26T08:01:29;5.07;;;3.97;;
71965;SDS011;59836;52.132;5.442;2022-10-26T08:03:56;6.68;;;3.80;;
71965;SDS011;59836;52.132;5.442;2022-10-26T08:06:22;7.40;;;3.77;;
71965;SDS011;59836;52.132;5.442;2022-10-26T08:08:49;6.47;;;3.80;;
71965;SDS011;59836;52.132;5.442;2022-10-26T08:11:16;5.32;;;3.58;;
71965;SDS011;59836;52.132;5.442;2022-10-26T08:13:43;8.15;;;3.78;;
71965;SDS011;59836;52.132;5.442;2022-10-26T08:16:09;6.57;;;3.88;;
71965;SDS011;59836;52.132;5.442;2022-10-26T08:18:36;7.77;;;3.83;;
71965;SDS011;59836;52.132;5.442;2022-10-26T08:21:04;6.85;;;3.70;;
71965;SDS011;59836;52.132;5.442;2022-10-26T08:23:37;8.98;;;3.00;;
71965;SDS011;59836;52.132;5.442;2022-10-26T08:26:04;8.57;;;3.55;;
71965;SDS011;59836;52.132;5.442;2022-10-26T08:28:31;3.97;;;3.10;;
71965;SDS011;59836;52.132;5.442;2022-10-26T08:30:57;4.27;;;3.30;;
71965;SDS011;59836;52.132;5.442;2022-10-26T08:33:24;6.78;;;3.30;;
71965;SDS011;59836;52.132;5.442;2022-10-26T08:35:57;7.20;;;2.70;;
71965;SDS011;59836;52.132;5.442;2022-10-26T08:38:24;6.38;;;3.05;;
71965;SDS011;59836;52.132;5.442;2022-10-26T08:40:51;8.80;;;2.60;;
71965;SDS011;59836;52.132;5.442;2022-10-26T08:46:26;3.13;;;2.38;;
71965;SDS011;59836;52.132;5.442;2022-10-26T08:48:59;4.05;;;2.75;;
71965;SDS011;59836;52.132;5.442;2022-10-26T08:51:31;5.22;;;3.20;;
71965;SDS011;59836;52.132;5.442;2022-10-26T08:54:13;5.78;;;3.30;;
71965;SDS011;59836;52.132;5.442;2022-10-26T08:56:45;6.97;;;3.17;;
71965;SDS011;59836;52.132;5.442;2022-10-26T09:01:55;4.60;;;2.83;;
71965;SDS011;59836;52.132;5.442;2022-10-26T09:04:24;4.88;;;2.92;;
71965;SDS011;59836;52.132;5.442;2022-10-26T09:06:55;5.80;;;3.13;;
71965;SDS011;59836;52.132;5.442;2022-10-26T09:09:30;6.20;;;3.43;;
71965;SDS011;59836;52.132;5.442;2022-10-26T09:25:39;6.47;;;3.13;;
71965;SDS011;59836;52.132;5.442;2022-10-26T09:28:10;5.38;;;3.78;;
71965;SDS011;59836;52.132;5.442;2022-10-26T09:30:45;4.47;;;2.90;;
71965;SDS011;59836;52.132;5.442;2022-10-26T09:33:15;6.53;;;3.70;;
71965;SDS011;59836;52.132;5.442;2022-10-26T09:35:57;7.80;;;2.97;;
71965;SDS011;59836;52.132;5.442;2022-10-26T09:38:31;5.50;;;3.40;;
71965;SDS011;59836;52.132;5.442;2022-10-26T09:41:07;6.43;;;3.55;;
71965;SDS011;59836;52.132;5.442;2022-10-26T09:44:18;6.50;;;3.10;;
71965;SDS011;59836;52.132;5.442;2022-10-26T09:46:54;5.65;;;2.97;;
71965;SDS011;59836;52.132;5.442;2022-10-26T09:49:28;7.77;;;3.50;;
71965;SDS011;59836;52.132;5.442;2022-10-26T09:52:01;6.07;;;3.00;;
71965;SDS011;59836;52.132;5.442;2022-10-26T09:54:28;4.95;;;3.10;;
71965;SDS011;59836;52.132;5.442;2022-10-26T09:56:55;5.05;;;3.17;;
71965;SDS011;59836;52.132;5.442;2022-10-26T09:59:25;4.57;;;2.90;;
71965;SDS011;59836;52.132;5.442;2022-10-26T10:01:52;5.73;;;3.10;;
71965;SDS011;59836;52.132;5.442;2022-10-26T10:04:19;6.00;;;3.58;;
71965;SDS011;59836;52.132;5.442;2022-10-26T10:06:49;5.18;;;2.90;;
71965;SDS011;59836;52.132;5.442;2022-10-26T10:09:18;5.35;;;2.92;;
71965;SDS011;59836;52.132;5.442;2022-10-26T10:11:48;7.93;;;2.78;;
71965;SDS011;59836;52.132;5.442;2022-10-26T10:14:22;5.53;;;2.53;;
71965;SDS011;59836;52.132;5.442;2022-10-26T10:16:54;7.60;;;2.92;;
71965;SDS011;59836;52.132;5.442;2022-10-26T10:19:27;4.55;;;2.70;;
71965;SDS011;59836;52.132;5.442;2022-10-26T10:21:57;6.22;;;2.55;;
71965;SDS011;59836;52.132;5.442;2022-10-26T10:27:03;4.33;;;2.57;;
71965;SDS011;59836;52.132;5.442;2022-10-26T10:29:44;4.72;;;2.70;;
71965;SDS011;59836;52.132;5.442;2022-10-26T10:32:21;4.38;;;2.85;;
71965;SDS011;59836;52.132;5.442;2022-10-26T10:34:50;6.90;;;3.03;;
71965;SDS011;59836;52.132;5.442;2022-10-26T10:37:29;5.03;;;2.80;;
71965;SDS011;59836;52.132;5.442;2022-10-26T10:42:47;7.72;;;2.88;;
71965;SDS011;59836;52.132;5.442;2022-10-26T10:45:20;4.43;;;2.47;;
71965;SDS011;59836;52.132;5.442;2022-10-26T10:50:26;5.97;;;2.80;;
71965;SDS011;59836;52.132;5.442;2022-10-26T10:55:46;3.65;;;2.45;;
71965;SDS011;59836;52.132;5.442;2022-10-26T10:58:51;6.40;;;2.65;;
71965;SDS011;59836;52.132;5.442;2022-10-26T11:01:30;6.00;;;2.75;;
71965;SDS011;59836;52.132;5.442;2022-10-26T11:06:46;5.00;;;2.57;;
71965;SDS011;59836;52.132;5.442;2022-10-26T11:09:15;8.73;;;2.58;;
71965;SDS011;59836;52.132;5.442;2022-10-26T11:11:52;6.80;;;2.53;;
71965;SDS011;59836;52.132;5.442;2022-10-26T11:14:27;6.95;;;2.80;;
71965;SDS011;59836;52.132;5.442;2022-10-26T11:17:01;4.47;;;2.90;;
71965;SDS011;59836;52.132;5.442;2022-10-26T11:19:33;5.67;;;2.90;;
71965;SDS011;59836;52.132;5.442;2022-10-26T11:22:10;4.68;;;3.05;;
71965;SDS011;59836;52.132;5.442;2022-10-26T11:24:45;6.38;;;3.35;;
71965;SDS011;59836;52.132;5.442;2022-10-26T11:27:16;4.55;;;3.95;;
71965;SDS011;59836;52.132;5.442;2022-10-26T11:30:04;7.18;;;4.10;;
71965;SDS011;59836;52.132;5.442;2022-10-26T11:32:48;7.27;;;4.20;;
71965;SDS011;59836;52.132;5.442;2022-10-26T11:35:23;7.10;;;3.88;;
71965;SDS011;59836;52.132;5.442;2022-10-26T11:45:44;6.13;;;3.60;;
71965;SDS011;59836;52.132;5.442;2022-10-26T11:50:52;7.72;;;2.72;;
71965;SDS011;59836;52.132;5.442;2022-10-26T11:53:23;3.28;;;2.90;;
71965;SDS011;59836;52.132;5.442;2022-10-26T11:56:01;7.18;;;3.65;;
71965;SDS011;59836;52.132;5.442;2022-10-26T11:58:30;6.03;;;3.10;;
71965;SDS011;59836;52.132;5.442;2022-10-26T12:01:01;5.85;;;3.05;;
71965;SDS011;59836;52.132;5.442;2022-10-26T12:03:33;7.55;;;3.67;;
71965;SDS011;59836;52.132;5.442;2022-10-26T12:06:04;5.20;;;3.88;;
71965;SDS011;59836;52.132;5.442;2022-10-26T12:08:37;5.70;;;3.53;;
71965;SDS011;59836;52.132;5.442;2022-10-26T12:22:30;5.85;;;2.90;;
71965;SDS011;59836;52.132;5.442;2022-10-26T12:30:40;3.65;;;2.90;;
71965;SDS011;59836;52.132;5.442;2022-10-26T12:33:00;5.75;;;2.65;;
71965;SDS011;59836;52.132;5.442;2022-10-26T12:41:25;4.28;;;2.78;;
71965;SDS011;59836;52.132;5.442;2022-10-26T12:43:54;4.72;;;2.88;;
71965;SDS011;59836;52.132;5.442;2022-10-26T12:48:51;8.73;;;2.53;;
71965;SDS011;59836;52.132;5.442;2022-10-26T12:56:35;3.83;;;2.33;;
71965;SDS011;59836;52.132;5.442;2022-10-26T13:02:35;5.85;;;2.83;;
71965;SDS011;59836;52.132;5.442;2022-10-26T13:08:07;3.40;;;2.70;;
71965;SDS011;59836;52.132;5.442;2022-10-26T13:10:35;4.93;;;3.20;;
71965;SDS011;59836;52.132;5.442;2022-10-26T13:13:06;4.53;;;3.53;;
71965;SDS011;59836;52.132;5.442;2022-10-26T13:18:41;4.20;;;3.00;;
71965;SDS011;59836;52.132;5.442;2022-10-26T13:21:17;6.20;;;2.95;;
71965;SDS011;59836;52.132;5.442;2022-10-26T13:26:19;6.07;;;3.22;;
71965;SDS011;59836;52.132;5.442;2022-10-26T13:29:01;5.72;;;2.85;;
71965;SDS011;59836;52.132;5.442;2022-10-26T13:34:12;4.82;;;2.63;;
71965;SDS011;59836;52.132;5.442;2022-10-26T13:40:03;4.25;;;2.80;;
71965;SDS011;59836;52.132;5.442;2022-10-26T13:43:32;4.43;;;2.78;;
71965;SDS011;59836;52.132;5.442;2022-10-26T13:45:45;6.07;;;3.00;;
71965;SDS011;59836;52.132;5.442;2022-10-26T13:48:29;5.50;;;2.65;;
71965;SDS011;59836;52.132;5.442;2022-10-26T13:51:02;8.98;;;2.80;;
71965;SDS011;59836;52.132;5.442;2022-10-26T13:53:42;5.68;;;3.30;;
71965;SDS011;59836;52.132;5.442;2022-10-26T13:56:27;7.57;;;3.13;;
71965;SDS011;59836;52.132;5.442;2022-10-26T13:59:02;6.33;;;3.03;;
71965;SDS011;59836;52.132;5.442;2022-10-26T14:01:31;5.70;;;3.80;;
71965;SDS011;59836;52.132;5.442;2022-10-26T14:06:54;4.28;;;3.15;;
71965;SDS011;59836;52.132;5.442;2022-10-26T14:09:20;6.38;;;3.50;;
71965;SDS011;59836;52.132;5.442;2022-10-26T14:11:48;5.80;;;3.47;;
71965;SDS011;59836;52.132;5.442;2022-10-26T14:17:03;3.72;;;3.05;;
71965;SDS011;59836;52.132;5.442;2022-10-26T14:19:34;9.70;;;3.42;;
71965;SDS011;59836;52.132;5.442;2022-10-26T14:24:50;6.43;;;3.57;;
71965;SDS011;59836;52.132;5.442;2022-10-26T14:33:16;6.15;;;3.10;;
71965;SDS011;59836;52.132;5.442;2022-10-26T14:35:44;5.35;;;3.17;;
71965;SDS011;59836;52.132;5.442;2022-10-26T14:38:18;3.87;;;3.33;;
71965;SDS011;59836;52.132;5.442;2022-10-26T14:40:50;3.80;;;3.10;;
71965;SDS011;59836;52.132;5.442;2022-10-26T14:43:20;4.75;;;3.25;;
71965;SDS011;59836;52.132;5.442;2022-10-26T14:45:59;7.18;;;3.25;;
71965;SDS011;59836;52.132;5.442;2022-10-26T14:48:33;4.60;;;2.80;;
71965;SDS011;59836;52.132;5.442;2022-10-26T14:59:25;3.40;;;2.08;;
71965;SDS011;59836;52.132;5.442;2022-10-26T15:04:58;6.13;;;1.70;;
71965;SDS011;59836;52.132;5.442;2022-10-26T15:13:39;4.90;;;2.47;;
71965;SDS011;59836;52.132;5.442;2022-10-26T15:16:18;2.55;;;1.63;;
71965;SDS011;59836;52.132;5.442;2022-10-26T15:18:48;3.83;;;1.57;;
71965;SDS011;59836;52.132;5.442;2022-10-26T15:24:36;3.08;;;1.10;;
71965;SDS011;59836;52.132;5.442;2022-10-26T15:27:14;3.53;;;1.63;;
71965;SDS011;59836;52.132;5.442;2022-10-26T15:32:29;3.53;;;1.60;;
71965;SDS011;59836;52.132;5.442;2022-10-26T15:37:52;3.80;;;2.30;;
71965;SDS011;59836;52.132;5.442;2022-10-26T15:40:20;4.05;;;1.63;;
71965;SDS011;59836;52.132;5.442;2022-10-26T15:45:46;3.67;;;1.73;;
71965;SDS011;59836;52.132;5.442;2022-10-26T15:48:25;3.13;;;1.60;;
71965;SDS011;59836;52.132;5.442;2022-10-26T15:50:54;3.75;;;1.63;;
71965;SDS011;59836;52.132;5.442;2022-10-26T15:53:25;3.60;;;1.52;;
71965;SDS011;59836;52.132;5.442;2022-10-26T15:56:12;3.33;;;2.08;;
71965;SDS011;59836;52.132;5.442;2022-10-26T15:58:41;3.47;;;1.67;;
71965;SDS011;59836;52.132;5.442;2022-10-26T16:01:15;4.32;;;1.50;;
71965;SDS011;59836;52.132;5.442;2022-10-26T16:03:43;4.43;;;1.40;;
71965;SDS011;59836;52.132;5.442;2022-10-26T16:06:14;3.72;;;1.80;;
71965;SDS011;59836;52.132;5.442;2022-10-26T16:11:41;6.03;;;2.90;;
71965;SDS011;59836;52.132;5.442;2022-10-26T16:14:08;6.45;;;2.30;;
71965;SDS011;59836;52.132;5.442;2022-10-26T16:16:35;6.88;;;1.70;;
71965;SDS011;59836;52.132;5.442;2022-10-26T16:19:03;3.90;;;2.35;;
71965;SDS011;59836;52.132;5.442;2022-10-26T16:21:50;3.33;;;1.63;;
71965;SDS011;59836;52.132;5.442;2022-10-26T16:24:19;3.33;;;1.67;;
71965;SDS011;59836;52.132;5.442;2022-10-26T16:26:46;4.07;;;1.73;;
71965;SDS011;59836;52.132;5.442;2022-10-26T16:29:12;3.85;;;1.65;;
71965;SDS011;59836;52.132;5.442;2022-10-26T16:31:42;5.15;;;1.77;;
71965;SDS011;59836;52.132;5.442;2022-10-26T16:34:11;6.55;;;2.03;;
71965;SDS011;59836;52.132;5.442;2022-10-26T16:36:37;3.13;;;1.53;;
71965;SDS011;59836;52.132;5.442;2022-10-26T16:39:04;3.50;;;1.67;;
71965;SDS011;59836;52.132;5.442;2022-10-26T16:41:31;4.95;;;2.33;;
71965;SDS011;59836;52.132;5.442;2022-10-26T16:43:59;3.40;;;1.88;;
71965;SDS011;59836;52.132;5.442;2022-10-26T16:46:26;6.63;;;3.35;;
71965;SDS011;59836;52.132;5.442;2022-10-26T16:48:53;7.23;;;3.30;;
71965;SDS011;59836;52.132;5.442;2022-10-26T16:51:28;9.13;;;4.82;;
71965;SDS011;59836;52.132;5.442;2022-10-26T16:56:25;9.07;;;3.25;;
71965;SDS011;59836;52.132;5.442;2022-10-26T16:58:53;6.43;;;3.20;;
71965;SDS011;59836;52.132;5.442;2022-10-26T17:01:21;7.63;;;3.23;;
71965;SDS011;59836;52.132;5.442;2022-10-26T17:03:48;5.72;;;3.20;;
71965;SDS011;59836;52.132;5.442;2022-10-26T17:06:27;5.15;;;2.70;;
71965;SDS011;59836;52.132;5.442;2022-10-26T17:09:09;7.10;;;3.78;;
71965;SDS011;59836;52.132;5.442;2022-10-26T17:11:35;7.63;;;3.42;;
71965;SDS011;59836;52.132;5.442;2022-10-26T17:14:02;4.33;;;2.80;;
71965;SDS011;59836;52.132;5.442;2022-10-26T17:16:28;6.35;;;2.58;;
71965;SDS011;59836;52.132;5.442;2022-10-26T17:18:55;9.82;;;2.60;;
71965;SDS011;59836;52.132;5.442;2022-10-26T17:24:14;7.38;;;2.67;;
71965;SDS011;59836;52.132;5.442;2022-10-26T17:26:40;5.23;;;2.53;;
71965;SDS011;59836;52.132;5.442;2022-10-26T17:29:07;6.80;;;2.47;;
71965;SDS011;59836;52.132;5.442;2022-10-26T17:31:34;7.55;;;2.30;;
71965;SDS011;59836;52.132;5.442;2022-10-26T17:34:02;5.30;;;2.78;;
71965;SDS011;59836;52.132;5.442;2022-10-26T17:36:28;4.50;;;2.58;;
71965;SDS011;59836;52.132;5.442;2022-10-26T17:38:56;4.93;;;3.00;;
71965;SDS011;59836;52.132;5.442;2022-10-26T17:41:35;5.07;;;2.78;;
71965;SDS011;59836;52.132;5.442;2022-10-26T17:44:02;7.40;;;2.80;;
71965;SDS011;59836;52.132;5.442;2022-10-26T17:46:28;5.30;;;3.10;;
71965;SDS011;59836;52.132;5.442;2022-10-26T17:48:58;5.93;;;3.38;;
71965;SDS011;59836;52.132;5.442;2022-10-26T17:51:26;4.87;;;3.27;;
71965;SDS011;59836;52.132;5.442;2022-10-26T17:56:35;4.32;;;2.95;;
71965;SDS011;59836;52.132;5.442;2022-10-26T17:59:03;5.22;;;3.28;;
71965;SDS011;59836;52.132;5.442;2022-10-26T18:01:46;7.05;;;2.63;;
71965;SDS011;59836;52.132;5.442;2022-10-26T18:07:11;5.53;;;3.70;;
71965;SDS011;59836;52.132;5.442;2022-10-26T18:09:38;5.88;;;3.80;;
71965;SDS011;59836;52.132;5.442;2022-10-26T18:12:04;7.32;;;4.55;;
71965;SDS011;59836;52.132;5.442;2022-10-26T18:14:31;9.00;;;3.67;;
71965;SDS011;59836;52.132;5.442;2022-10-26T18:16:57;7.97;;;4.30;;
71965;SDS011;59836;52.132;5.442;2022-10-26T18:19:24;10.77;;;4.05;;
71965;SDS011;59836;52.132;5.442;2022-10-26T18:21:50;7.70;;;4.30;;
71965;SDS011;59836;52.132;5.442;2022-10-26T18:24:16;7.57;;;3.75;;
71965;SDS011;59836;52.132;5.442;2022-10-26T18:26:43;6.72;;;3.30;;
71965;SDS011;59836;52.132;5.442;2022-10-26T18:29:09;7.73;;;3.60;;
71965;SDS011;59836;52.132;5.442;2022-10-26T18:34:44;4.97;;;3.30;;
71965;SDS011;59836;52.132;5.442;2022-10-26T18:37:10;6.32;;;3.35;;
71965;SDS011;59836;52.132;5.442;2022-10-26T18:39:36;6.22;;;3.85;;
71965;SDS011;59836;52.132;5.442;2022-10-26T18:42:03;8.50;;;3.40;;
71965;SDS011;59836;52.132;5.442;2022-10-26T18:44:29;9.32;;;3.83;;
71965;SDS011;59836;52.132;5.442;2022-10-26T18:47:07;7.50;;;4.10;;
71965;SDS011;59836;52.132;5.442;2022-10-26T18:49:33;7.60;;;4.30;;
71965;SDS011;59836;52.132;5.442;2022-10-26T18:52:08;8.95;;;4.22;;
71965;SDS011;59836;52.132;5.442;2022-10-26T18:54:34;7.77;;;4.23;;
71965;SDS011;59836;52.132;5.442;2022-10-26T18:57:01;7.00;;;3.83;;
71965;SDS011;59836;52.132;5.442;2022-10-26T18:59:27;7.13;;;3.42;;
71965;SDS011;59836;52.132;5.442;2022-10-26T19:02:03;7.00;;;3.90;;
71965;SDS011;59836;52.132;5.442;2022-10-26T19:04:29;8.02;;;3.70;;
71965;SDS011;59836;52.132;5.442;2022-10-26T19:07:13;8.27;;;3.70;;
71965;SDS011;59836;52.132;5.442;2022-10-26T19:12:28;6.72;;;3.20;;
71965;SDS011;59836;52.132;5.442;2022-10-26T19:14:59;5.25;;;3.50;;
71965;SDS011;59836;52.132;5.442;2022-10-26T19:17:26;7.13;;;3.10;;
71965;SDS011;59836;52.132;5.442;2022-10-26T19:19:53;5.20;;;2.97;;
71965;SDS011;59836;52.132;5.442;2022-10-26T19:22:23;5.05;;;2.65;;
71965;SDS011;59836;52.132;5.442;2022-10-26T19:24:49;4.53;;;2.92;;
71965;SDS011;59836;52.132;5.442;2022-10-26T19:27:16;7.03;;;3.38;;
71965;SDS011;59836;52.132;5.442;2022-10-26T19:29:47;4.97;;;3.42;;
71965;SDS011;59836;52.132;5.442;2022-10-26T19:32:32;4.63;;;3.33;;